sensor_id;sensor_type;location;lat;lon;timestamp;pressure;altitude;pressure_sealevel;temperature;humidity
52745;BME280;38637;49.984;20.426;2023-03-14T00:00:37;97988.09;;;8.15;63.98
52745;BME280;38637;49.984;20.426;2023-03-14T00:03:02;97957.97;;;8.01;64.30
52745;BME280;38637;49.984;20.426;2023-03-14T00:05:27;97972.38;;;8.06;64.12
52745;BME280;38637;49.984;20.426;2023-03-14T00:07:53;97965.06;;;8.02;64.27
52745;BME280;38637;49.984;20.426;2023-03-14T00:10:19;97962.91;;;7.94;64.77
52745;BME280;38637;49.984;20.426;2023-03-14T00:12:44;97953.72;;;7.90;64.75
52745;BME280;38637;49.984;20.426;2023-03-14T00:15:10;97954.28;;;7.87;64.92
52745;BME280;38637;49.984;20.426;2023-03-14T00:17:36;97946.38;;;7.85;64.78
52745;BME280;38637;49.984;20.426;2023-03-14T00:20:05;97936.88;;;7.82;65.02
52745;BME280;38637;49.984;20.426;2023-03-14T00:22:38;97932.28;;;7.78;65.27
52745;BME280;38637;49.984;20.426;2023-03-14T00:25:06;97936.88;;;7.77;65.43
52745;BME280;38637;49.984;20.426;2023-03-14T00:27:32;97926.56;;;7.74;65.12
52745;BME280;38637;49.984;20.426;2023-03-14T00:29:57;97915.50;;;7.66;65.35
52745;BME280;38637;49.984;20.426;2023-03-14T00:32:23;97935.84;;;7.68;65.54
52745;BME280;38637;49.984;20.426;2023-03-14T00:34:48;97928.78;;;7.67;65.51
52745;BME280;38637;49.984;20.426;2023-03-14T00:37:14;97884.88;;;7.45;65.64
52745;BME280;38637;49.984;20.426;2023-03-14T00:39:39;97916.31;;;7.66;65.42
52745;BME280;38637;49.984;20.426;2023-03-14T00:42:05;97906.25;;;7.67;65.58
52745;BME280;38637;49.984;20.426;2023-03-14T00:44:30;97903.22;;;7.68;65.38
52745;BME280;38637;49.984;20.426;2023-03-14T00:46:56;97907.59;;;7.69;65.52
52745;BME280;38637;49.984;20.426;2023-03-14T00:49:22;97903.28;;;7.63;65.58
52745;BME280;38637;49.984;20.426;2023-03-14T00:51:47;97895.44;;;7.56;65.97
52745;BME280;38637;49.984;20.426;2023-03-14T00:54:12;97886.78;;;7.44;66.08
52745;BME280;38637;49.984;20.426;2023-03-14T00:56:38;97901.44;;;7.43;66.30
52745;BME280;38637;49.984;20.426;2023-03-14T00:59:03;97903.91;;;7.34;66.46
52745;BME280;38637;49.984;20.426;2023-03-14T01:01:28;97897.72;;;7.29;66.69
52745;BME280;38637;49.984;20.426;2023-03-14T01:03:55;97908.84;;;7.27;66.38
52745;BME280;38637;49.984;20.426;2023-03-14T01:06:26;97899.03;;;7.31;66.11
52745;BME280;38637;49.984;20.426;2023-03-14T01:08:52;97882.72;;;7.36;66.36
52745;BME280;38637;49.984;20.426;2023-03-14T01:11:25;97868.06;;;7.37;66.00
52745;BME280;38637;49.984;20.426;2023-03-14T01:13:51;97875.16;;;7.33;66.52
52745;BME280;38637;49.984;20.426;2023-03-14T01:16:17;97871.13;;;7.26;66.75
52745;BME280;38637;49.984;20.426;2023-03-14T01:18:44;97856.75;;;7.20;66.96
52745;BME280;38637;49.984;20.426;2023-03-14T01:24:11;97840.22;;;7.06;67.46
52745;BME280;38637;49.984;20.426;2023-03-14T01:26:36;97817.16;;;7.04;67.21
52745;BME280;38637;49.984;20.426;2023-03-14T01:29:02;97803.88;;;7.02;67.29
52745;BME280;38637;49.984;20.426;2023-03-14T01:31:28;97794.94;;;6.97;67.84
52745;BME280;38637;49.984;20.426;2023-03-14T01:33:54;97798.75;;;6.90;68.15
52745;BME280;38637;49.984;20.426;2023-03-14T01:36:19;97780.06;;;6.84;68.57
52745;BME280;38637;49.984;20.426;2023-03-14T01:38:45;97783.31;;;6.86;68.23
52745;BME280;38637;49.984;20.426;2023-03-14T01:41:15;97781.41;;;6.86;68.24
52745;BME280;38637;49.984;20.426;2023-03-14T01:43:40;97790.09;;;6.83;68.21
52745;BME280;38637;49.984;20.426;2023-03-14T01:48:35;97780.66;;;6.71;68.95
52745;BME280;38637;49.984;20.426;2023-03-14T01:51:04;97769.50;;;6.67;68.98
52745;BME280;38637;49.984;20.426;2023-03-14T01:53:31;97756.78;;;6.62;68.72
52745;BME280;38637;49.984;20.426;2023-03-14T01:55:57;97744.03;;;6.58;69.19
52745;BME280;38637;49.984;20.426;2023-03-14T01:58:25;97749.75;;;6.56;69.26
52745;BME280;38637;49.984;20.426;2023-03-14T02:00:53;97746.78;;;6.53;69.43
52745;BME280;38637;49.984;20.426;2023-03-14T02:03:20;97755.72;;;6.48;69.62
52745;BME280;38637;49.984;20.426;2023-03-14T02:05:46;97733.81;;;6.34;70.29
52745;BME280;38637;49.984;20.426;2023-03-14T02:08:14;97734.88;;;6.38;70.09
52745;BME280;38637;49.984;20.426;2023-03-14T02:10:43;97738.16;;;6.40;70.09
52745;BME280;38637;49.984;20.426;2023-03-14T02:13:10;97735.94;;;6.42;70.69
52745;BME280;38637;49.984;20.426;2023-03-14T02:15:36;97744.38;;;6.41;70.55
52745;BME280;38637;49.984;20.426;2023-03-14T02:18:03;97735.19;;;6.37;70.57
52745;BME280;38637;49.984;20.426;2023-03-14T02:20:38;97719.16;;;6.35;70.27
52745;BME280;38637;49.984;20.426;2023-03-14T02:23:07;97718.91;;;6.37;70.44
52745;BME280;38637;49.984;20.426;2023-03-14T02:28:01;97701.03;;;6.31;70.82
52745;BME280;38637;49.984;20.426;2023-03-14T02:30:29;97698.31;;;6.26;71.60
52745;BME280;38637;49.984;20.426;2023-03-14T02:33:03;97685.63;;;6.11;71.99
52745;BME280;38637;49.984;20.426;2023-03-14T02:35:37;97686.16;;;6.13;71.79
52745;BME280;38637;49.984;20.426;2023-03-14T02:38:15;97691.03;;;6.11;72.06
52745;BME280;38637;49.984;20.426;2023-03-14T02:40:42;97686.16;;;6.03;71.72
52745;BME280;38637;49.984;20.426;2023-03-14T02:43:07;97674.81;;;6.01;71.98
52745;BME280;38637;49.984;20.426;2023-03-14T02:45:38;97671.53;;;5.98;72.00
52745;BME280;38637;49.984;20.426;2023-03-14T02:48:09;97665.88;;;5.95;72.59
52745;BME280;38637;49.984;20.426;2023-03-14T02:50:36;97655.56;;;5.92;72.54
52745;BME280;38637;49.984;20.426;2023-03-14T02:53:01;97656.34;;;5.92;72.34
52745;BME280;38637;49.984;20.426;2023-03-14T02:55:26;97651.47;;;5.89;72.70
52745;BME280;38637;49.984;20.426;2023-03-14T02:57:52;97643.66;;;5.88;72.03
52745;BME280;38637;49.984;20.426;2023-03-14T03:00:18;97643.66;;;5.93;72.06
52745;BME280;38637;49.984;20.426;2023-03-14T03:02:44;97633.63;;;5.93;72.16
52745;BME280;38637;49.984;20.426;2023-03-14T03:05:10;97636.88;;;5.95;72.30
52745;BME280;38637;49.984;20.426;2023-03-14T03:07:35;97634.16;;;5.95;72.27
52745;BME280;38637;49.984;20.426;2023-03-14T03:10:00;97635.78;;;5.96;71.94
52745;BME280;38637;49.984;20.426;2023-03-14T03:12:26;97632.00;;;5.97;72.71
52745;BME280;38637;49.984;20.426;2023-03-14T03:14:51;97629.00;;;5.99;72.53
52745;BME280;38637;49.984;20.426;2023-03-14T03:17:16;97636.31;;;5.98;72.55
52745;BME280;38637;49.984;20.426;2023-03-14T03:19:42;97627.66;;;5.96;72.42
52745;BME280;38637;49.984;20.426;2023-03-14T03:22:07;97626.03;;;5.95;72.78
52745;BME280;38637;49.984;20.426;2023-03-14T03:24:33;97620.91;;;5.94;72.69
52745;BME280;38637;49.984;20.426;2023-03-14T03:26:58;97607.03;;;5.90;73.25
52745;BME280;38637;49.984;20.426;2023-03-14T03:29:23;97598.41;;;5.88;72.96
52745;BME280;38637;49.984;20.426;2023-03-14T03:31:49;97597.31;;;5.84;73.02
52745;BME280;38637;49.984;20.426;2023-03-14T03:34:14;97590.81;;;5.85;73.41
52745;BME280;38637;49.984;20.426;2023-03-14T03:36:40;97580.00;;;5.85;72.97
52745;BME280;38637;49.984;20.426;2023-03-14T03:39:05;97567.81;;;5.88;72.85
52745;BME280;38637;49.984;20.426;2023-03-14T03:41:31;97568.88;;;5.92;72.67
52745;BME280;38637;49.984;20.426;2023-03-14T03:43:56;97562.09;;;5.84;73.14
52745;BME280;38637;49.984;20.426;2023-03-14T03:46:22;97565.91;;;5.93;73.00
52745;BME280;38637;49.984;20.426;2023-03-14T03:48:47;97560.22;;;5.95;73.13
52745;BME280;38637;49.984;20.426;2023-03-14T03:51:16;97550.44;;;5.89;72.64
52745;BME280;38637;49.984;20.426;2023-03-14T03:53:42;97558.84;;;5.97;73.03
52745;BME280;38637;49.984;20.426;2023-03-14T03:56:08;97556.09;;;6.03;72.47
52745;BME280;38637;49.984;20.426;2023-03-14T03:58:34;97557.19;;;6.07;72.57
52745;BME280;38637;49.984;20.426;2023-03-14T04:00:59;97555.53;;;6.11;72.26
52745;BME280;38637;49.984;20.426;2023-03-14T04:03:24;97547.41;;;6.16;71.96
52745;BME280;38637;49.984;20.426;2023-03-14T04:06:03;97544.66;;;6.21;71.93
52745;BME280;38637;49.984;20.426;2023-03-14T04:08:29;97541.94;;;6.26;72.08
52745;BME280;38637;49.984;20.426;2023-03-14T04:10:59;97544.09;;;6.29;71.82
52745;BME280;38637;49.984;20.426;2023-03-14T04:13:25;97548.94;;;6.32;71.57
52745;BME280;38637;49.984;20.426;2023-03-14T04:15:52;97556.22;;;6.42;71.33
52745;BME280;38637;49.984;20.426;2023-03-14T04:18:17;97558.91;;;6.47;70.92
52745;BME280;38637;49.984;20.426;2023-03-14T04:20:43;97561.31;;;6.54;70.63
52745;BME280;38637;49.984;20.426;2023-03-14T04:23:09;97559.63;;;6.58;70.55
52745;BME280;38637;49.984;20.426;2023-03-14T04:25:34;97559.91;;;6.61;70.36
52745;BME280;38637;49.984;20.426;2023-03-14T04:27:59;97565.59;;;6.60;70.15
52745;BME280;38637;49.984;20.426;2023-03-14T04:30:25;97562.34;;;6.63;70.00
52745;BME280;38637;49.984;20.426;2023-03-14T04:32:50;97579.41;;;6.63;69.83
52745;BME280;38637;49.984;20.426;2023-03-14T04:35:15;97580.78;;;6.61;69.79
52745;BME280;38637;49.984;20.426;2023-03-14T04:37:41;97588.66;;;6.57;69.79
52745;BME280;38637;49.984;20.426;2023-03-14T04:40:09;97588.97;;;6.56;69.65
52745;BME280;38637;49.984;20.426;2023-03-14T04:42:34;97586.56;;;6.44;69.27
52745;BME280;38637;49.984;20.426;2023-03-14T04:45:00;97595.03;;;6.32;69.26
52745;BME280;38637;49.984;20.426;2023-03-14T04:47:26;97595.31;;;6.31;69.30
52745;BME280;38637;49.984;20.426;2023-03-14T04:49:51;97591.28;;;6.23;70.03
52745;BME280;38637;49.984;20.426;2023-03-14T04:52:16;97598.91;;;6.16;70.14
52745;BME280;38637;49.984;20.426;2023-03-14T04:54:42;97601.34;;;6.12;69.90
52745;BME280;38637;49.984;20.426;2023-03-14T04:57:08;97621.41;;;6.06;70.87
52745;BME280;38637;49.984;20.426;2023-03-14T04:59:33;97629.81;;;5.89;71.20
52745;BME280;38637;49.984;20.426;2023-03-14T05:01:59;97638.22;;;5.83;71.22
52745;BME280;38637;49.984;20.426;2023-03-14T05:04:24;97643.91;;;5.81;71.65
52745;BME280;38637;49.984;20.426;2023-03-14T05:06:49;97640.13;;;5.77;71.63
52745;BME280;38637;49.984;20.426;2023-03-14T05:09:15;97641.78;;;5.73;72.55
52745;BME280;38637;49.984;20.426;2023-03-14T05:11:40;97637.97;;;5.74;72.22
52745;BME280;38637;49.984;20.426;2023-03-14T05:14:06;97639.31;;;5.76;71.87
52745;BME280;38637;49.984;20.426;2023-03-14T05:16:31;97639.03;;;5.83;72.00
52745;BME280;38637;49.984;20.426;2023-03-14T05:18:56;97645.53;;;5.87;71.98
52745;BME280;38637;49.984;20.426;2023-03-14T05:21:22;97652.28;;;5.90;72.03
52745;BME280;38637;49.984;20.426;2023-03-14T05:23:47;97642.25;;;5.90;72.18
52745;BME280;38637;49.984;20.426;2023-03-14T05:26:12;97646.63;;;6.02;72.19
52745;BME280;38637;49.984;20.426;2023-03-14T05:28:38;97623.28;;;6.06;71.75
52745;BME280;38637;49.984;20.426;2023-03-14T05:31:06;97609.19;;;6.19;71.49
52745;BME280;38637;49.984;20.426;2023-03-14T05:33:32;97626.50;;;6.28;71.40
52745;BME280;38637;49.984;20.426;2023-03-14T05:35:57;97618.06;;;6.35;71.46
52745;BME280;38637;49.984;20.426;2023-03-14T05:38:22;97611.78;;;6.39;71.18
52745;BME280;38637;49.984;20.426;2023-03-14T05:40:48;97618.25;;;6.54;70.86
52745;BME280;38637;49.984;20.426;2023-03-14T05:43:13;97610.34;;;6.62;71.09
52745;BME280;38637;49.984;20.426;2023-03-14T05:45:40;97620.06;;;6.68;70.44
52745;BME280;38637;49.984;20.426;2023-03-14T05:48:05;97633.78;;;6.87;70.33
52745;BME280;38637;49.984;20.426;2023-03-14T05:50:31;97619.91;;;6.99;70.30
52745;BME280;38637;49.984;20.426;2023-03-14T05:52:56;97616.59;;;7.07;70.47
52745;BME280;38637;49.984;20.426;2023-03-14T05:55:21;97606.22;;;7.14;70.54
52745;BME280;38637;49.984;20.426;2023-03-14T05:57:47;97607.44;;;7.32;70.20
52745;BME280;38637;49.984;20.426;2023-03-14T06:00:12;97594.31;;;7.45;69.68
52745;BME280;38637;49.984;20.426;2023-03-14T06:02:38;97601.22;;;7.61;69.54
52745;BME280;38637;49.984;20.426;2023-03-14T06:05:04;97592.94;;;7.71;69.30
52745;BME280;38637;49.984;20.426;2023-03-14T06:07:29;97590.13;;;7.87;69.01
52745;BME280;38637;49.984;20.426;2023-03-14T06:09:55;97587.22;;;8.02;68.55
52745;BME280;38637;49.984;20.426;2023-03-14T06:12:20;97569.41;;;8.15;68.19
52745;BME280;38637;49.984;20.426;2023-03-14T06:14:45;97574.13;;;8.28;67.98
52745;BME280;38637;49.984;20.426;2023-03-14T06:17:10;97566.69;;;8.39;67.89
52745;BME280;38637;49.984;20.426;2023-03-14T06:19:36;97571.69;;;8.50;67.59
52745;BME280;38637;49.984;20.426;2023-03-14T06:22:01;97584.59;;;8.64;67.56
52745;BME280;38637;49.984;20.426;2023-03-14T06:24:26;97580.97;;;8.68;67.60
52745;BME280;38637;49.984;20.426;2023-03-14T06:26:52;97583.28;;;8.80;67.14
52745;BME280;38637;49.984;20.426;2023-03-14T06:29:17;97577.06;;;8.93;67.08
52745;BME280;38637;49.984;20.426;2023-03-14T06:31:42;97562.81;;;9.02;66.49
52745;BME280;38637;49.984;20.426;2023-03-14T06:34:08;97573.00;;;9.29;65.88
52745;BME280;38637;49.984;20.426;2023-03-14T06:36:33;97560.53;;;9.41;65.58
52745;BME280;38637;49.984;20.426;2023-03-14T06:38:58;97572.16;;;9.61;65.77
52745;BME280;38637;49.984;20.426;2023-03-14T06:41:23;97562.50;;;9.69;65.69
52745;BME280;38637;49.984;20.426;2023-03-14T06:43:51;97562.44;;;9.74;65.28
52745;BME280;38637;49.984;20.426;2023-03-14T06:46:16;97556.38;;;9.77;65.51
52745;BME280;38637;49.984;20.426;2023-03-14T06:48:42;97549.81;;;9.78;65.14
52745;BME280;38637;49.984;20.426;2023-03-14T06:51:07;97553.94;;;9.75;65.41
52745;BME280;38637;49.984;20.426;2023-03-14T06:53:32;97552.81;;;9.76;65.74
52745;BME280;38637;49.984;20.426;2023-03-14T06:55:58;97545.97;;;9.79;65.01
52745;BME280;38637;49.984;20.426;2023-03-14T06:58:23;97547.69;;;9.88;65.19
52745;BME280;38637;49.984;20.426;2023-03-14T07:00:49;97532.84;;;9.95;64.71
52745;BME280;38637;49.984;20.426;2023-03-14T07:03:14;97523.06;;;10.07;64.69
52745;BME280;38637;49.984;20.426;2023-03-14T07:05:40;97533.44;;;10.19;64.50
52745;BME280;38637;49.984;20.426;2023-03-14T07:08:07;97526.50;;;10.27;64.64
52745;BME280;38637;49.984;20.426;2023-03-14T07:10:33;97526.19;;;10.28;64.58
52745;BME280;38637;49.984;20.426;2023-03-14T07:12:58;97532.47;;;10.29;64.71
52745;BME280;38637;49.984;20.426;2023-03-14T07:15:23;97529.44;;;10.30;64.69
52745;BME280;38637;49.984;20.426;2023-03-14T07:17:49;97532.34;;;10.34;66.87
52745;BME280;38637;49.984;20.426;2023-03-14T07:20:14;97537.72;;;10.39;64.06
52745;BME280;38637;49.984;20.426;2023-03-14T07:22:40;97520.31;;;10.49;64.58
52745;BME280;38637;49.984;20.426;2023-03-14T07:25:05;97526.63;;;10.72;65.08
52745;BME280;38637;49.984;20.426;2023-03-14T07:27:31;97514.56;;;10.87;63.76
52745;BME280;38637;49.984;20.426;2023-03-14T07:29:56;97518.28;;;11.13;63.58
52745;BME280;38637;49.984;20.426;2023-03-14T07:32:21;97527.56;;;11.35;63.64
52745;BME280;38637;49.984;20.426;2023-03-14T07:34:46;97511.78;;;11.54;63.27
52745;BME280;38637;49.984;20.426;2023-03-14T07:37:12;97504.31;;;11.77;62.32
52745;BME280;38637;49.984;20.426;2023-03-14T07:39:37;97517.47;;;11.98;61.51
52745;BME280;38637;49.984;20.426;2023-03-14T07:42:02;97523.34;;;12.22;60.90
52745;BME280;38637;49.984;20.426;2023-03-14T07:44:28;97519.56;;;12.49;60.39
52745;BME280;38637;49.984;20.426;2023-03-14T07:46:53;97524.09;;;12.71;57.98
52745;BME280;38637;49.984;20.426;2023-03-14T07:49:19;97511.38;;;12.93;58.12
52745;BME280;38637;49.984;20.426;2023-03-14T07:51:47;97499.91;;;13.17;57.51
52745;BME280;38637;49.984;20.426;2023-03-14T07:54:12;97502.47;;;13.39;54.86
52745;BME280;38637;49.984;20.426;2023-03-14T07:56:38;97502.72;;;13.64;53.44
52745;BME280;38637;49.984;20.426;2023-03-14T07:59:03;97512.00;;;13.80;51.88
52745;BME280;38637;49.984;20.426;2023-03-14T08:01:28;97505.97;;;13.95;50.95
52745;BME280;38637;49.984;20.426;2023-03-14T08:03:54;97501.03;;;14.18;50.37
52745;BME280;38637;49.984;20.426;2023-03-14T08:06:19;97504.97;;;14.38;49.64
52745;BME280;38637;49.984;20.426;2023-03-14T08:08:44;97502.13;;;14.56;48.33
52745;BME280;38637;49.984;20.426;2023-03-14T08:11:09;97503.00;;;14.68;48.32
52745;BME280;38637;49.984;20.426;2023-03-14T08:13:37;97509.97;;;14.87;48.03
52745;BME280;38637;49.984;20.426;2023-03-14T08:16:03;97503.03;;;14.89;48.09
52745;BME280;38637;49.984;20.426;2023-03-14T08:18:28;97502.94;;;14.77;47.23
52745;BME280;38637;49.984;20.426;2023-03-14T08:20:53;97498.97;;;14.66;47.31
52745;BME280;38637;49.984;20.426;2023-03-14T08:23:19;97513.78;;;14.53;47.34
52745;BME280;38637;49.984;20.426;2023-03-14T08:25:44;97509.94;;;14.45;47.78
52745;BME280;38637;49.984;20.426;2023-03-14T08:28:09;97519.31;;;14.44;47.81
52745;BME280;38637;49.984;20.426;2023-03-14T08:30:35;97516.25;;;14.45;48.02
52745;BME280;38637;49.984;20.426;2023-03-14T08:33:00;97505.38;;;14.49;48.01
52745;BME280;38637;49.984;20.426;2023-03-14T08:35:27;97505.16;;;14.63;47.80
52745;BME280;38637;49.984;20.426;2023-03-14T08:37:52;97509.91;;;14.75;47.30
52745;BME280;38637;49.984;20.426;2023-03-14T08:40:18;97509.19;;;14.86;46.42
52745;BME280;38637;49.984;20.426;2023-03-14T08:42:44;97511.81;;;15.04;46.28
52745;BME280;38637;49.984;20.426;2023-03-14T08:45:12;97519.88;;;15.21;45.87
52745;BME280;38637;49.984;20.426;2023-03-14T08:47:38;97496.41;;;15.24;45.66
52745;BME280;38637;49.984;20.426;2023-03-14T08:50:04;97503.78;;;15.32;45.63
52745;BME280;38637;49.984;20.426;2023-03-14T08:52:31;97493.56;;;15.32;45.26
52745;BME280;38637;49.984;20.426;2023-03-14T08:54:57;97499.19;;;15.36;45.23
52745;BME280;38637;49.984;20.426;2023-03-14T08:57:23;97492.25;;;15.51;44.99
52745;BME280;38637;49.984;20.426;2023-03-14T08:59:56;97489.00;;;15.82;45.20
52745;BME280;38637;49.984;20.426;2023-03-14T09:02:22;97485.16;;;16.07;45.09
52745;BME280;38637;49.984;20.426;2023-03-14T09:04:47;97464.50;;;16.26;44.58
52745;BME280;38637;49.984;20.426;2023-03-14T09:07:13;97469.19;;;16.38;44.82
52745;BME280;38637;49.984;20.426;2023-03-14T09:09:38;97471.47;;;16.48;44.83
52745;BME280;38637;49.984;20.426;2023-03-14T09:12:03;97487.97;;;16.60;43.93
52745;BME280;38637;49.984;20.426;2023-03-14T09:14:30;97497.59;;;16.66;43.09
52745;BME280;38637;49.984;20.426;2023-03-14T09:16:55;97509.44;;;16.79;43.77
52745;BME280;38637;49.984;20.426;2023-03-14T09:19:20;97497.38;;;16.84;43.40
52745;BME280;38637;49.984;20.426;2023-03-14T09:21:46;97512.13;;;17.04;43.77
52745;BME280;38637;49.984;20.426;2023-03-14T09:24:11;97512.47;;;17.02;42.87
52745;BME280;38637;49.984;20.426;2023-03-14T09:26:37;97514.91;;;16.91;43.15
52745;BME280;38637;49.984;20.426;2023-03-14T09:29:03;97514.13;;;16.91;42.66
52745;BME280;38637;49.984;20.426;2023-03-14T09:31:28;97503.91;;;16.79;43.29
52745;BME280;38637;49.984;20.426;2023-03-14T09:33:54;97496.34;;;16.64;43.19
52745;BME280;38637;49.984;20.426;2023-03-14T09:36:19;97507.28;;;16.23;43.71
52745;BME280;38637;49.984;20.426;2023-03-14T09:38:45;97513.66;;;15.78;45.13
52745;BME280;38637;49.984;20.426;2023-03-14T09:41:28;97524.09;;;15.52;45.44
52745;BME280;38637;49.984;20.426;2023-03-14T09:44:21;97510.19;;;15.36;45.29
52745;BME280;38637;49.984;20.426;2023-03-14T09:46:51;97529.75;;;15.22;45.86
52745;BME280;38637;49.984;20.426;2023-03-14T09:49:24;97537.41;;;15.16;46.03
52745;BME280;38637;49.984;20.426;2023-03-14T09:51:52;97532.78;;;15.08;46.13
52745;BME280;38637;49.984;20.426;2023-03-14T09:54:40;97535.25;;;15.01;46.54
52745;BME280;38637;49.984;20.426;2023-03-14T09:57:14;97547.91;;;14.93;46.45
52745;BME280;38637;49.984;20.426;2023-03-14T09:59:42;97552.00;;;14.87;46.73
52745;BME280;38637;49.984;20.426;2023-03-14T10:02:18;97561.25;;;14.83;47.04
52745;BME280;38637;49.984;20.426;2023-03-14T10:04:46;97562.25;;;14.78;47.36
52745;BME280;38637;49.984;20.426;2023-03-14T10:07:28;97550.69;;;14.73;47.34
52745;BME280;38637;49.984;20.426;2023-03-14T10:09:53;97548.91;;;14.68;47.49
52745;BME280;38637;49.984;20.426;2023-03-14T10:12:19;97556.53;;;14.62;47.64
52745;BME280;38637;49.984;20.426;2023-03-14T10:14:51;97568.16;;;14.68;47.90
52745;BME280;38637;49.984;20.426;2023-03-14T10:17:19;97572.72;;;14.64;47.86
52745;BME280;38637;49.984;20.426;2023-03-14T10:19:52;97577.25;;;15.65;45.93
52745;BME280;38637;49.984;20.426;2023-03-14T10:22:18;97568.88;;;16.19;44.64
52745;BME280;38637;49.984;20.426;2023-03-14T10:24:56;97570.84;;;16.43;44.47
52745;BME280;38637;49.984;20.426;2023-03-14T10:27:29;97571.78;;;16.59;43.91
52745;BME280;38637;49.984;20.426;2023-03-14T10:29:59;97586.59;;;16.67;43.96
52745;BME280;38637;49.984;20.426;2023-03-14T10:32:36;97574.31;;;16.64;43.33
52745;BME280;38637;49.984;20.426;2023-03-14T10:37:48;97581.66;;;16.48;43.78
52745;BME280;38637;49.984;20.426;2023-03-14T10:40:15;97575.56;;;16.54;44.23
52745;BME280;38637;49.984;20.426;2023-03-14T10:42:43;97580.50;;;16.61;44.51
52745;BME280;38637;49.984;20.426;2023-03-14T10:48:29;97570.84;;;16.55;44.31
52745;BME280;38637;49.984;20.426;2023-03-14T10:53:40;97559.75;;;16.76;43.81
52745;BME280;38637;49.984;20.426;2023-03-14T10:56:07;97549.84;;;16.87;43.41
52745;BME280;38637;49.984;20.426;2023-03-14T10:58:40;97554.41;;;16.95;43.31
52745;BME280;38637;49.984;20.426;2023-03-14T11:04:53;97567.31;;;16.79;44.05
52745;BME280;38637;49.984;20.426;2023-03-14T11:09:44;97553.19;;;16.56;44.22
52745;BME280;38637;49.984;20.426;2023-03-14T11:12:27;97530.69;;;16.42;44.25
52745;BME280;38637;49.984;20.426;2023-03-14T11:15:02;97544.69;;;16.37;44.83
52745;BME280;38637;49.984;20.426;2023-03-14T11:17:36;97538.75;;;16.22;44.78
52745;BME280;38637;49.984;20.426;2023-03-14T11:22:59;97546.44;;;16.41;45.34
52745;BME280;38637;49.984;20.426;2023-03-14T11:25:48;97545.16;;;16.63;45.10
52745;BME280;38637;49.984;20.426;2023-03-14T11:28:28;97541.31;;;16.92;44.91
52745;BME280;38637;49.984;20.426;2023-03-14T11:31:07;97541.75;;;17.07;44.40
52745;BME280;38637;49.984;20.426;2023-03-14T11:34:11;97540.44;;;17.16;43.28
52745;BME280;38637;49.984;20.426;2023-03-14T11:36:43;97531.84;;;17.18;43.61
52745;BME280;38637;49.984;20.426;2023-03-14T11:39:14;97537.59;;;17.13;43.42
52745;BME280;38637;49.984;20.426;2023-03-14T11:41:45;97528.38;;;17.21;43.16
52745;BME280;38637;49.984;20.426;2023-03-14T11:44:24;97530.06;;;17.26;43.17
52745;BME280;38637;49.984;20.426;2023-03-14T11:47:01;97523.09;;;17.16;43.56
52745;BME280;38637;49.984;20.426;2023-03-14T11:49:40;97519.31;;;17.20;43.90
52745;BME280;38637;49.984;20.426;2023-03-14T11:52:27;97521.13;;;17.44;43.32
52745;BME280;38637;49.984;20.426;2023-03-14T11:57:37;97510.53;;;17.31;43.80
52745;BME280;38637;49.984;20.426;2023-03-14T12:00:17;97504.25;;;17.18;43.70
52745;BME280;38637;49.984;20.426;2023-03-14T12:08:19;97496.22;;;17.41;43.21
52745;BME280;38637;49.984;20.426;2023-03-14T12:10:55;97502.50;;;17.69;43.36
52745;BME280;38637;49.984;20.426;2023-03-14T12:13:28;97514.56;;;17.77;43.11
52745;BME280;38637;49.984;20.426;2023-03-14T12:15:56;97523.97;;;17.76;43.30
52745;BME280;38637;49.984;20.426;2023-03-14T12:18:32;97519.66;;;17.63;42.60
52745;BME280;38637;49.984;20.426;2023-03-14T12:21:07;97528.94;;;17.55;42.59
52745;BME280;38637;49.984;20.426;2023-03-14T12:23:44;97528.66;;;17.60;42.54
52745;BME280;38637;49.984;20.426;2023-03-14T12:26:27;97529.84;;;17.75;42.44
52745;BME280;38637;49.984;20.426;2023-03-14T12:36:56;97520.38;;;17.60;42.29
52745;BME280;38637;49.984;20.426;2023-03-14T12:42:13;97520.22;;;17.68;42.73
52745;BME280;38637;49.984;20.426;2023-03-14T12:49:46;97500.59;;;18.02;41.90
52745;BME280;38637;49.984;20.426;2023-03-14T12:52:15;97493.81;;;18.15;42.11
52745;BME280;38637;49.984;20.426;2023-03-14T12:54:50;97484.72;;;18.14;41.61
52745;BME280;38637;49.984;20.426;2023-03-14T12:57:33;97473.31;;;18.16;42.08
52745;BME280;38637;49.984;20.426;2023-03-14T13:00:11;97475.28;;;18.16;42.04
52745;BME280;38637;49.984;20.426;2023-03-14T13:02:43;97471.72;;;17.83;41.79
52745;BME280;38637;49.984;20.426;2023-03-14T13:05:12;97483.69;;;17.75;42.84
52745;BME280;38637;49.984;20.426;2023-03-14T13:10:16;97492.09;;;17.35;43.24
52745;BME280;38637;49.984;20.426;2023-03-14T13:15:27;97493.91;;;16.87;43.84
52745;BME280;38637;49.984;20.426;2023-03-14T13:17:59;97491.66;;;16.52;45.78
52745;BME280;38637;49.984;20.426;2023-03-14T13:20:33;97510.16;;;16.39;45.69
52745;BME280;38637;49.984;20.426;2023-03-14T13:22:59;97506.81;;;16.34;46.26
52745;BME280;38637;49.984;20.426;2023-03-14T13:25:29;97506.38;;;16.19;46.29
52745;BME280;38637;49.984;20.426;2023-03-14T13:27:55;97502.47;;;16.08;46.64
52745;BME280;38637;49.984;20.426;2023-03-14T13:30:24;97509.13;;;15.95;46.94
52745;BME280;38637;49.984;20.426;2023-03-14T13:32:51;97507.38;;;15.78;47.74
52745;BME280;38637;49.984;20.426;2023-03-14T13:35:22;97509.16;;;15.61;47.68
52745;BME280;38637;49.984;20.426;2023-03-14T13:37:52;97518.06;;;15.58;47.50
52745;BME280;38637;49.984;20.426;2023-03-14T13:40:20;97514.72;;;15.53;47.82
52745;BME280;38637;49.984;20.426;2023-03-14T13:42:48;97510.00;;;15.41;47.53
52745;BME280;38637;49.984;20.426;2023-03-14T13:45:14;97507.88;;;15.26;47.71
52745;BME280;38637;49.984;20.426;2023-03-14T13:47:39;97532.81;;;15.21;47.91
52745;BME280;38637;49.984;20.426;2023-03-14T13:50:12;97535.81;;;15.15;48.07
52745;BME280;38637;49.984;20.426;2023-03-14T13:52:38;97529.75;;;15.01;48.23